sensor_id;sensor_type;location;lat;lon;timestamp;P1;durP1;ratioP1;P2;durP2;ratioP2
81026;SDS011;70506;49.320;8.446;2024-01-30T00:00:03;10.40;;;4.57;;
81026;SDS011;70506;49.320;8.446;2024-01-30T00:02:30;11.52;;;5.20;;
81026;SDS011;70506;49.320;8.446;2024-01-30T00:07:21;8.87;;;4.37;;
81026;SDS011;70506;49.320;8.446;2024-01-30T00:09:47;12.33;;;5.67;;
81026;SDS011;70506;49.320;8.446;2024-01-30T00:12:13;8.23;;;4.55;;
81026;SDS011;70506;49.320;8.446;2024-01-30T00:14:38;10.87;;;5.07;;
81026;SDS011;70506;49.320;8.446;2024-01-30T00:17:03;10.43;;;5.47;;
81026;SDS011;70506;49.320;8.446;2024-01-30T00:19:29;11.93;;;5.05;;
81026;SDS011;70506;49.320;8.446;2024-01-30T00:21:54;8.85;;;4.70;;
81026;SDS011;70506;49.320;8.446;2024-01-30T00:24:20;13.57;;;5.63;;
81026;SDS011;70506;49.320;8.446;2024-01-30T00:26:45;14.23;;;5.00;;
81026;SDS011;70506;49.320;8.446;2024-01-30T00:29:10;12.23;;;4.90;;
81026;SDS011;70506;49.320;8.446;2024-01-30T00:31:36;9.20;;;5.28;;
81026;SDS011;70506;49.320;8.446;2024-01-30T00:34:01;12.23;;;4.97;;
81026;SDS011;70506;49.320;8.446;2024-01-30T00:36:26;7.07;;;4.73;;
81026;SDS011;70506;49.320;8.446;2024-01-30T00:38:54;11.32;;;5.28;;
81026;SDS011;70506;49.320;8.446;2024-01-30T00:41:20;12.10;;;4.93;;
81026;SDS011;70506;49.320;8.446;2024-01-30T00:43:45;7.90;;;4.68;;
81026;SDS011;70506;49.320;8.446;2024-01-30T00:46:10;10.67;;;5.17;;
81026;SDS011;70506;49.320;8.446;2024-01-30T00:48:35;9.87;;;4.13;;
81026;SDS011;70506;49.320;8.446;2024-01-30T00:51:01;9.10;;;4.90;;
81026;SDS011;70506;49.320;8.446;2024-01-30T00:53:26;9.57;;;5.03;;
81026;SDS011;70506;49.320;8.446;2024-01-30T00:55:51;11.50;;;5.10;;
81026;SDS011;70506;49.320;8.446;2024-01-30T00:58:17;10.57;;;4.93;;
81026;SDS011;70506;49.320;8.446;2024-01-30T01:00:44;9.57;;;4.70;;
81026;SDS011;70506;49.320;8.446;2024-01-30T01:03:09;6.63;;;4.20;;
81026;SDS011;70506;49.320;8.446;2024-01-30T01:05:34;9.83;;;5.70;;
81026;SDS011;70506;49.320;8.446;2024-01-30T01:08:00;7.87;;;4.60;;
81026;SDS011;70506;49.320;8.446;2024-01-30T01:10:25;9.68;;;4.60;;
81026;SDS011;70506;49.320;8.446;2024-01-30T01:12:52;8.68;;;4.68;;
81026;SDS011;70506;49.320;8.446;2024-01-30T01:15:17;11.03;;;4.87;;
81026;SDS011;70506;49.320;8.446;2024-01-30T01:17:43;10.90;;;4.32;;
81026;SDS011;70506;49.320;8.446;2024-01-30T01:20:08;9.07;;;4.53;;
81026;SDS011;70506;49.320;8.446;2024-01-30T01:22:35;12.07;;;4.88;;
81026;SDS011;70506;49.320;8.446;2024-01-30T01:25:00;8.97;;;4.37;;
81026;SDS011;70506;49.320;8.446;2024-01-30T01:27:26;8.35;;;4.70;;
81026;SDS011;70506;49.320;8.446;2024-01-30T01:29:52;9.25;;;5.00;;
81026;SDS011;70506;49.320;8.446;2024-01-30T01:32:17;8.50;;;4.47;;
81026;SDS011;70506;49.320;8.446;2024-01-30T01:34:43;9.40;;;4.65;;
81026;SDS011;70506;49.320;8.446;2024-01-30T01:37:08;6.72;;;4.45;;
81026;SDS011;70506;49.320;8.446;2024-01-30T01:39:33;10.95;;;4.40;;
81026;SDS011;70506;49.320;8.446;2024-01-30T01:41:59;10.73;;;5.32;;
81026;SDS011;70506;49.320;8.446;2024-01-30T01:44:24;6.87;;;4.00;;
81026;SDS011;70506;49.320;8.446;2024-01-30T01:46:49;8.20;;;4.77;;
81026;SDS011;70506;49.320;8.446;2024-01-30T01:49:16;9.13;;;5.70;;
81026;SDS011;70506;49.320;8.446;2024-01-30T01:51:42;9.05;;;4.13;;
81026;SDS011;70506;49.320;8.446;2024-01-30T01:54:09;10.13;;;4.32;;
81026;SDS011;70506;49.320;8.446;2024-01-30T01:56:35;10.02;;;5.35;;
81026;SDS011;70506;49.320;8.446;2024-01-30T01:59:04;8.02;;;4.43;;
81026;SDS011;70506;49.320;8.446;2024-01-30T02:01:31;13.77;;;4.95;;
81026;SDS011;70506;49.320;8.446;2024-01-30T02:03:58;9.45;;;5.10;;
81026;SDS011;70506;49.320;8.446;2024-01-30T02:06:23;9.13;;;5.30;;
81026;SDS011;70506;49.320;8.446;2024-01-30T02:08:49;8.87;;;3.70;;
81026;SDS011;70506;49.320;8.446;2024-01-30T02:11:14;10.90;;;4.53;;
81026;SDS011;70506;49.320;8.446;2024-01-30T02:13:41;6.32;;;3.47;;
81026;SDS011;70506;49.320;8.446;2024-01-30T02:16:06;15.07;;;4.93;;
81026;SDS011;70506;49.320;8.446;2024-01-30T02:18:32;8.97;;;4.20;;
81026;SDS011;70506;49.320;8.446;2024-01-30T02:20:58;9.15;;;4.68;;
81026;SDS011;70506;49.320;8.446;2024-01-30T02:23:26;9.27;;;4.22;;
81026;SDS011;70506;49.320;8.446;2024-01-30T02:25:52;13.40;;;5.07;;
81026;SDS011;70506;49.320;8.446;2024-01-30T02:28:18;8.55;;;4.05;;
81026;SDS011;70506;49.320;8.446;2024-01-30T02:30:43;6.57;;;4.10;;
81026;SDS011;70506;49.320;8.446;2024-01-30T02:33:09;11.83;;;4.13;;
81026;SDS011;70506;49.320;8.446;2024-01-30T02:35:34;5.33;;;3.43;;
81026;SDS011;70506;49.320;8.446;2024-01-30T02:38:00;12.30;;;4.97;;
81026;SDS011;70506;49.320;8.446;2024-01-30T02:40:25;9.05;;;3.97;;
81026;SDS011;70506;49.320;8.446;2024-01-30T02:42:51;8.40;;;4.30;;
81026;SDS011;70506;49.320;8.446;2024-01-30T02:45:16;11.80;;;4.67;;
81026;SDS011;70506;49.320;8.446;2024-01-30T02:47:41;8.45;;;4.50;;
81026;SDS011;70506;49.320;8.446;2024-01-30T02:50:07;7.07;;;4.17;;
81026;SDS011;70506;49.320;8.446;2024-01-30T02:52:32;9.95;;;4.22;;
81026;SDS011;70506;49.320;8.446;2024-01-30T02:54:58;8.02;;;4.05;;
81026;SDS011;70506;49.320;8.446;2024-01-30T02:57:23;11.47;;;4.20;;
81026;SDS011;70506;49.320;8.446;2024-01-30T02:59:48;7.22;;;4.30;;
81026;SDS011;70506;49.320;8.446;2024-01-30T03:02:14;11.17;;;4.17;;
81026;SDS011;70506;49.320;8.446;2024-01-30T03:04:42;12.83;;;4.20;;
81026;SDS011;70506;49.320;8.446;2024-01-30T03:07:07;6.72;;;4.47;;
81026;SDS011;70506;49.320;8.446;2024-01-30T03:09:33;7.35;;;4.07;;
81026;SDS011;70506;49.320;8.446;2024-01-30T03:11:58;6.97;;;4.53;;
81026;SDS011;70506;49.320;8.446;2024-01-30T03:14:24;6.88;;;3.90;;
81026;SDS011;70506;49.320;8.446;2024-01-30T03:16:49;8.83;;;4.30;;
81026;SDS011;70506;49.320;8.446;2024-01-30T03:19:14;9.10;;;4.03;;
81026;SDS011;70506;49.320;8.446;2024-01-30T03:21:40;9.73;;;3.77;;
81026;SDS011;70506;49.320;8.446;2024-01-30T03:24:05;9.18;;;3.72;;
81026;SDS011;70506;49.320;8.446;2024-01-30T03:26:30;7.20;;;3.72;;
81026;SDS011;70506;49.320;8.446;2024-01-30T03:28:56;6.20;;;3.20;;
81026;SDS011;70506;49.320;8.446;2024-01-30T03:31:21;10.70;;;4.43;;
81026;SDS011;70506;49.320;8.446;2024-01-30T03:33:46;10.77;;;4.68;;
81026;SDS011;70506;49.320;8.446;2024-01-30T03:36:12;7.67;;;3.93;;
81026;SDS011;70506;49.320;8.446;2024-01-30T03:38:37;7.77;;;4.07;;
81026;SDS011;70506;49.320;8.446;2024-01-30T03:41:02;8.23;;;4.67;;
81026;SDS011;70506;49.320;8.446;2024-01-30T03:43:28;8.00;;;3.85;;
81026;SDS011;70506;49.320;8.446;2024-01-30T03:45:53;7.57;;;3.43;;
81026;SDS011;70506;49.320;8.446;2024-01-30T03:48:19;6.95;;;3.35;;
81026;SDS011;70506;49.320;8.446;2024-01-30T03:50:46;9.57;;;4.30;;
81026;SDS011;70506;49.320;8.446;2024-01-30T03:53:11;7.63;;;3.87;;
81026;SDS011;70506;49.320;8.446;2024-01-30T03:55:36;7.63;;;3.70;;
81026;SDS011;70506;49.320;8.446;2024-01-30T03:58:02;9.27;;;3.67;;
81026;SDS011;70506;49.320;8.446;2024-01-30T04:00:27;9.07;;;4.25;;
81026;SDS011;70506;49.320;8.446;2024-01-30T04:02:52;6.97;;;3.63;;
81026;SDS011;70506;49.320;8.446;2024-01-30T04:05:18;7.82;;;4.28;;
81026;SDS011;70506;49.320;8.446;2024-01-30T04:07:43;7.77;;;4.33;;
81026;SDS011;70506;49.320;8.446;2024-01-30T04:10:09;7.20;;;4.00;;
81026;SDS011;70506;49.320;8.446;2024-01-30T04:12:35;7.80;;;4.78;;
81026;SDS011;70506;49.320;8.446;2024-01-30T04:15:00;9.50;;;4.30;;
81026;SDS011;70506;49.320;8.446;2024-01-30T04:17:25;8.13;;;4.00;;
81026;SDS011;70506;49.320;8.446;2024-01-30T04:19:51;11.43;;;4.45;;
81026;SDS011;70506;49.320;8.446;2024-01-30T04:22:16;5.73;;;3.70;;
81026;SDS011;70506;49.320;8.446;2024-01-30T04:24:42;7.60;;;3.70;;
81026;SDS011;70506;49.320;8.446;2024-01-30T04:27:07;6.68;;;3.78;;
81026;SDS011;70506;49.320;8.446;2024-01-30T04:29:32;7.90;;;3.77;;
81026;SDS011;70506;49.320;8.446;2024-01-30T04:31:59;6.30;;;4.43;;
81026;SDS011;70506;49.320;8.446;2024-01-30T04:34:24;6.80;;;3.90;;
81026;SDS011;70506;49.320;8.446;2024-01-30T04:36:50;6.97;;;4.33;;
81026;SDS011;70506;49.320;8.446;2024-01-30T04:39:15;7.40;;;3.67;;
81026;SDS011;70506;49.320;8.446;2024-01-30T04:41:40;9.30;;;4.00;;
81026;SDS011;70506;49.320;8.446;2024-01-30T04:44:06;8.97;;;4.53;;
81026;SDS011;70506;49.320;8.446;2024-01-30T04:46:31;7.10;;;3.95;;
81026;SDS011;70506;49.320;8.446;2024-01-30T04:48:59;10.10;;;3.95;;
81026;SDS011;70506;49.320;8.446;2024-01-30T04:51:24;7.30;;;4.63;;
81026;SDS011;70506;49.320;8.446;2024-01-30T04:53:49;8.37;;;4.80;;
81026;SDS011;70506;49.320;8.446;2024-01-30T04:56:14;7.10;;;4.23;;
81026;SDS011;70506;49.320;8.446;2024-01-30T04:58:40;9.60;;;4.53;;
81026;SDS011;70506;49.320;8.446;2024-01-30T05:01:05;6.27;;;3.80;;
81026;SDS011;70506;49.320;8.446;2024-01-30T05:03:33;10.02;;;4.65;;
81026;SDS011;70506;49.320;8.446;2024-01-30T05:05:59;10.95;;;4.32;;
81026;SDS011;70506;49.320;8.446;2024-01-30T05:08:24;7.33;;;4.50;;
81026;SDS011;70506;49.320;8.446;2024-01-30T05:10:49;12.43;;;3.60;;
81026;SDS011;70506;49.320;8.446;2024-01-30T05:13:15;5.17;;;3.23;;
81026;SDS011;70506;49.320;8.446;2024-01-30T05:15:40;9.33;;;4.67;;
81026;SDS011;70506;49.320;8.446;2024-01-30T05:18:05;7.93;;;3.80;;
81026;SDS011;70506;49.320;8.446;2024-01-30T05:20:31;7.77;;;3.67;;
81026;SDS011;70506;49.320;8.446;2024-01-30T05:22:56;11.90;;;4.23;;
81026;SDS011;70506;49.320;8.446;2024-01-30T05:25:21;6.68;;;4.80;;
81026;SDS011;70506;49.320;8.446;2024-01-30T05:27:48;10.10;;;4.68;;
81026;SDS011;70506;49.320;8.446;2024-01-30T05:30:13;7.70;;;3.70;;
81026;SDS011;70506;49.320;8.446;2024-01-30T05:32:38;6.57;;;3.90;;
81026;SDS011;70506;49.320;8.446;2024-01-30T05:35:04;8.27;;;4.05;;
81026;SDS011;70506;49.320;8.446;2024-01-30T05:37:29;6.95;;;3.78;;
81026;SDS011;70506;49.320;8.446;2024-01-30T05:39:55;5.57;;;3.70;;
81026;SDS011;70506;49.320;8.446;2024-01-30T05:42:20;5.43;;;3.28;;
81026;SDS011;70506;49.320;8.446;2024-01-30T05:44:45;10.90;;;3.83;;
81026;SDS011;70506;49.320;8.446;2024-01-30T05:47:11;6.47;;;4.07;;
81026;SDS011;70506;49.320;8.446;2024-01-30T05:49:36;7.17;;;3.27;;
81026;SDS011;70506;49.320;8.446;2024-01-30T05:52:02;6.95;;;3.97;;
81026;SDS011;70506;49.320;8.446;2024-01-30T05:54:28;13.10;;;5.20;;
81026;SDS011;70506;49.320;8.446;2024-01-30T05:56:54;8.47;;;3.90;;
81026;SDS011;70506;49.320;8.446;2024-01-30T05:59:19;13.87;;;3.63;;
81026;SDS011;70506;49.320;8.446;2024-01-30T06:01:47;8.67;;;3.80;;
81026;SDS011;70506;49.320;8.446;2024-01-30T06:04:13;8.05;;;4.00;;
81026;SDS011;70506;49.320;8.446;2024-01-30T06:06:39;9.43;;;3.72;;
81026;SDS011;70506;49.320;8.446;2024-01-30T06:11:33;5.25;;;3.63;;
81026;SDS011;70506;49.320;8.446;2024-01-30T06:13:59;9.48;;;4.60;;
81026;SDS011;70506;49.320;8.446;2024-01-30T06:16:24;8.10;;;3.90;;
81026;SDS011;70506;49.320;8.446;2024-01-30T06:18:54;6.80;;;3.60;;
81026;SDS011;70506;49.320;8.446;2024-01-30T06:21:19;10.47;;;5.13;;
81026;SDS011;70506;49.320;8.446;2024-01-30T06:23:45;11.05;;;3.75;;
81026;SDS011;70506;49.320;8.446;2024-01-30T06:26:10;7.80;;;3.83;;
81026;SDS011;70506;49.320;8.446;2024-01-30T06:28:35;7.27;;;4.50;;
81026;SDS011;70506;49.320;8.446;2024-01-30T06:31:01;11.25;;;3.50;;
81026;SDS011;70506;49.320;8.446;2024-01-30T06:33:26;7.40;;;3.83;;
81026;SDS011;70506;49.320;8.446;2024-01-30T06:35:51;7.10;;;3.60;;
81026;SDS011;70506;49.320;8.446;2024-01-30T06:38:17;5.13;;;3.17;;
81026;SDS011;70506;49.320;8.446;2024-01-30T06:40:42;6.28;;;3.92;;
81026;SDS011;70506;49.320;8.446;2024-01-30T06:43:08;8.35;;;3.83;;
81026;SDS011;70506;49.320;8.446;2024-01-30T06:45:33;9.43;;;4.87;;
81026;SDS011;70506;49.320;8.446;2024-01-30T06:47:59;5.97;;;3.35;;
81026;SDS011;70506;49.320;8.446;2024-01-30T06:50:25;7.78;;;4.15;;
81026;SDS011;70506;49.320;8.446;2024-01-30T06:52:50;7.40;;;4.20;;
81026;SDS011;70506;49.320;8.446;2024-01-30T06:55:15;8.07;;;3.75;;
81026;SDS011;70506;49.320;8.446;2024-01-30T06:57:41;8.83;;;3.73;;
81026;SDS011;70506;49.320;8.446;2024-01-30T07:00:06;10.83;;;4.40;;
81026;SDS011;70506;49.320;8.446;2024-01-30T07:02:32;7.85;;;4.47;;
81026;SDS011;70506;49.320;8.446;2024-01-30T07:04:57;6.75;;;3.75;;
81026;SDS011;70506;49.320;8.446;2024-01-30T07:07:22;14.03;;;4.07;;
81026;SDS011;70506;49.320;8.446;2024-01-30T07:09:48;7.77;;;4.37;;
81026;SDS011;70506;49.320;8.446;2024-01-30T07:12:16;10.57;;;4.10;;
81026;SDS011;70506;49.320;8.446;2024-01-30T07:14:41;6.87;;;4.23;;
81026;SDS011;70506;49.320;8.446;2024-01-30T07:17:06;13.00;;;3.63;;
81026;SDS011;70506;49.320;8.446;2024-01-30T07:19:32;6.95;;;3.45;;
81026;SDS011;70506;49.320;8.446;2024-01-30T07:21:57;9.05;;;4.32;;
81026;SDS011;70506;49.320;8.446;2024-01-30T07:24:23;8.23;;;3.33;;
81026;SDS011;70506;49.320;8.446;2024-01-30T07:26:48;8.13;;;4.17;;
81026;SDS011;70506;49.320;8.446;2024-01-30T07:29:13;9.47;;;4.43;;
81026;SDS011;70506;49.320;8.446;2024-01-30T07:31:39;10.57;;;3.90;;
81026;SDS011;70506;49.320;8.446;2024-01-30T07:34:05;10.02;;;4.72;;
81026;SDS011;70506;49.320;8.446;2024-01-30T07:36:30;8.53;;;4.10;;
81026;SDS011;70506;49.320;8.446;2024-01-30T07:38:55;6.03;;;3.80;;
81026;SDS011;70506;49.320;8.446;2024-01-30T07:41:21;8.57;;;4.43;;
81026;SDS011;70506;49.320;8.446;2024-01-30T07:43:46;14.25;;;4.93;;
81026;SDS011;70506;49.320;8.446;2024-01-30T07:46:11;9.87;;;4.70;;
81026;SDS011;70506;49.320;8.446;2024-01-30T07:48:37;9.07;;;3.83;;
81026;SDS011;70506;49.320;8.446;2024-01-30T07:51:02;8.33;;;4.33;;
81026;SDS011;70506;49.320;8.446;2024-01-30T07:55:54;8.17;;;4.13;;
81026;SDS011;70506;49.320;8.446;2024-01-30T07:58:19;7.80;;;3.65;;
81026;SDS011;70506;49.320;8.446;2024-01-30T08:00:45;10.53;;;4.77;;
81026;SDS011;70506;49.320;8.446;2024-01-30T08:03:10;10.02;;;5.22;;
81026;SDS011;70506;49.320;8.446;2024-01-30T08:05:35;9.02;;;4.93;;
81026;SDS011;70506;49.320;8.446;2024-01-30T08:08:01;8.23;;;4.53;;
81026;SDS011;70506;49.320;8.446;2024-01-30T08:10:26;10.93;;;5.65;;
81026;SDS011;70506;49.320;8.446;2024-01-30T08:12:51;9.87;;;4.43;;
81026;SDS011;70506;49.320;8.446;2024-01-30T08:15:17;9.90;;;3.90;;
81026;SDS011;70506;49.320;8.446;2024-01-30T08:17:42;9.93;;;5.20;;
81026;SDS011;70506;49.320;8.446;2024-01-30T08:20:07;10.60;;;4.20;;
81026;SDS011;70506;49.320;8.446;2024-01-30T08:22:35;9.48;;;4.60;;
81026;SDS011;70506;49.320;8.446;2024-01-30T08:25:00;12.63;;;4.90;;
81026;SDS011;70506;49.320;8.446;2024-01-30T08:27:26;8.80;;;4.13;;
81026;SDS011;70506;49.320;8.446;2024-01-30T08:29:51;11.03;;;5.40;;
81026;SDS011;70506;49.320;8.446;2024-01-30T08:32:16;10.03;;;3.90;;
81026;SDS011;70506;49.320;8.446;2024-01-30T08:34:42;9.90;;;4.73;;
81026;SDS011;70506;49.320;8.446;2024-01-30T08:37:07;10.57;;;4.67;;
81026;SDS011;70506;49.320;8.446;2024-01-30T08:39:32;9.07;;;4.65;;
81026;SDS011;70506;49.320;8.446;2024-01-30T08:41:57;8.87;;;4.87;;
81026;SDS011;70506;49.320;8.446;2024-01-30T08:44:23;11.77;;;4.85;;
81026;SDS011;70506;49.320;8.446;2024-01-30T08:46:48;7.97;;;4.77;;
81026;SDS011;70506;49.320;8.446;2024-01-30T08:49:16;11.13;;;4.97;;
81026;SDS011;70506;49.320;8.446;2024-01-30T08:51:41;8.77;;;4.43;;
81026;SDS011;70506;49.320;8.446;2024-01-30T08:54:06;13.82;;;5.05;;
81026;SDS011;70506;49.320;8.446;2024-01-30T08:56:32;13.05;;;5.07;;
81026;SDS011;70506;49.320;8.446;2024-01-30T08:58:57;11.27;;;4.83;;
81026;SDS011;70506;49.320;8.446;2024-01-30T09:01:23;9.90;;;4.60;;
81026;SDS011;70506;49.320;8.446;2024-01-30T09:03:48;8.13;;;4.20;;
81026;SDS011;70506;49.320;8.446;2024-01-30T09:06:13;11.05;;;4.97;;
81026;SDS011;70506;49.320;8.446;2024-01-30T09:08:39;8.75;;;4.20;;
81026;SDS011;70506;49.320;8.446;2024-01-30T09:11:11;9.98;;;4.60;;
81026;SDS011;70506;49.320;8.446;2024-01-30T09:13:37;7.03;;;4.35;;
81026;SDS011;70506;49.320;8.446;2024-01-30T09:16:03;7.68;;;3.95;;
81026;SDS011;70506;49.320;8.446;2024-01-30T09:18:28;12.50;;;5.30;;
81026;SDS011;70506;49.320;8.446;2024-01-30T09:20:54;7.13;;;4.25;;
81026;SDS011;70506;49.320;8.446;2024-01-30T09:23:19;10.10;;;4.70;;
81026;SDS011;70506;49.320;8.446;2024-01-30T09:25:44;12.23;;;4.77;;
81026;SDS011;70506;49.320;8.446;2024-01-30T09:28:10;10.32;;;4.28;;
81026;SDS011;70506;49.320;8.446;2024-01-30T09:30:35;11.65;;;5.32;;
81026;SDS011;70506;49.320;8.446;2024-01-30T09:33:01;9.60;;;4.63;;
81026;SDS011;70506;49.320;8.446;2024-01-30T09:35:26;11.18;;;4.82;;
81026;SDS011;70506;49.320;8.446;2024-01-30T09:37:51;9.32;;;5.47;;
81026;SDS011;70506;49.320;8.446;2024-01-30T09:40:17;8.48;;;5.25;;
81026;SDS011;70506;49.320;8.446;2024-01-30T09:45:09;8.38;;;3.88;;
81026;SDS011;70506;49.320;8.446;2024-01-30T09:47:40;10.25;;;4.93;;
81026;SDS011;70506;49.320;8.446;2024-01-30T09:50:09;10.45;;;5.07;;
81026;SDS011;70506;49.320;8.446;2024-01-30T09:52:37;10.13;;;4.68;;
81026;SDS011;70506;49.320;8.446;2024-01-30T09:55:05;13.95;;;5.13;;
81026;SDS011;70506;49.320;8.446;2024-01-30T09:57:31;9.75;;;4.72;;
81026;SDS011;70506;49.320;8.446;2024-01-30T09:59:56;10.88;;;5.20;;
81026;SDS011;70506;49.320;8.446;2024-01-30T10:02:22;10.23;;;4.25;;
81026;SDS011;70506;49.320;8.446;2024-01-30T10:04:51;13.25;;;5.60;;
81026;SDS011;70506;49.320;8.446;2024-01-30T10:07:17;10.43;;;4.95;;
81026;SDS011;70506;49.320;8.446;2024-01-30T10:09:43;9.73;;;4.82;;
81026;SDS011;70506;49.320;8.446;2024-01-30T10:12:11;9.57;;;4.10;;
81026;SDS011;70506;49.320;8.446;2024-01-30T10:14:39;11.30;;;5.47;;
81026;SDS011;70506;49.320;8.446;2024-01-30T10:17:06;12.60;;;5.70;;
81026;SDS011;70506;49.320;8.446;2024-01-30T10:19:32;10.02;;;5.00;;
81026;SDS011;70506;49.320;8.446;2024-01-30T10:21:59;8.02;;;4.57;;
81026;SDS011;70506;49.320;8.446;2024-01-30T10:24:25;11.90;;;5.15;;
81026;SDS011;70506;49.320;8.446;2024-01-30T10:26:51;13.02;;;4.72;;
81026;SDS011;70506;49.320;8.446;2024-01-30T10:29:16;12.77;;;6.13;;
81026;SDS011;70506;49.320;8.446;2024-01-30T10:31:42;10.93;;;5.43;;
81026;SDS011;70506;49.320;8.446;2024-01-30T10:34:07;10.60;;;5.28;;
81026;SDS011;70506;49.320;8.446;2024-01-30T10:36:33;10.00;;;5.43;;
81026;SDS011;70506;49.320;8.446;2024-01-30T10:39:08;11.65;;;5.65;;
81026;SDS011;70506;49.320;8.446;2024-01-30T10:41:43;9.98;;;5.35;;
81026;SDS011;70506;49.320;8.446;2024-01-30T10:44:09;11.02;;;4.88;;
81026;SDS011;70506;49.320;8.446;2024-01-30T10:46:37;10.60;;;5.00;;
81026;SDS011;70506;49.320;8.446;2024-01-30T10:49:03;9.77;;;4.95;;
81026;SDS011;70506;49.320;8.446;2024-01-30T10:51:29;8.45;;;4.57;;
81026;SDS011;70506;49.320;8.446;2024-01-30T10:53:56;12.60;;;4.47;;
81026;SDS011;70506;49.320;8.446;2024-01-30T10:56:22;10.27;;;5.13;;
81026;SDS011;70506;49.320;8.446;2024-01-30T10:58:51;8.68;;;4.32;;
81026;SDS011;70506;49.320;8.446;2024-01-30T11:01:18;11.65;;;5.45;;
81026;SDS011;70506;49.320;8.446;2024-01-30T11:03:45;10.85;;;5.63;;
81026;SDS011;70506;49.320;8.446;2024-01-30T11:06:10;10.10;;;5.25;;
81026;SDS011;70506;49.320;8.446;2024-01-30T11:08:37;9.00;;;5.05;;
81026;SDS011;70506;49.320;8.446;2024-01-30T11:11:02;10.23;;;4.68;;
81026;SDS011;70506;49.320;8.446;2024-01-30T11:13:33;9.75;;;4.90;;
81026;SDS011;70506;49.320;8.446;2024-01-30T11:16:00;9.70;;;4.90;;
81026;SDS011;70506;49.320;8.446;2024-01-30T11:18:29;11.75;;;5.25;;
81026;SDS011;70506;49.320;8.446;2024-01-30T11:23:30;8.40;;;4.53;;
81026;SDS011;70506;49.320;8.446;2024-01-30T11:25:56;10.50;;;4.32;;
81026;SDS011;70506;49.320;8.446;2024-01-30T11:28:21;10.57;;;4.40;;
81026;SDS011;70506;49.320;8.446;2024-01-30T11:30:47;6.85;;;3.95;;
81026;SDS011;70506;49.320;8.446;2024-01-30T11:33:15;11.13;;;4.95;;
81026;SDS011;70506;49.320;8.446;2024-01-30T11:35:52;9.18;;;4.28;;
81026;SDS011;70506;49.320;8.446;2024-01-30T11:38:17;10.52;;;4.43;;
81026;SDS011;70506;49.320;8.446;2024-01-30T11:40:43;7.82;;;4.45;;
81026;SDS011;70506;49.320;8.446;2024-01-30T11:43:08;10.40;;;4.43;;
81026;SDS011;70506;49.320;8.446;2024-01-30T11:45:35;8.63;;;4.55;;
81026;SDS011;70506;49.320;8.446;2024-01-30T11:48:01;9.60;;;4.32;;
81026;SDS011;70506;49.320;8.446;2024-01-30T11:50:28;10.38;;;4.78;;
81026;SDS011;70506;49.320;8.446;2024-01-30T11:52:54;10.90;;;5.25;;
81026;SDS011;70506;49.320;8.446;2024-01-30T11:55:20;9.32;;;4.30;;
81026;SDS011;70506;49.320;8.446;2024-01-30T11:57:45;8.52;;;4.03;;
81026;SDS011;70506;49.320;8.446;2024-01-30T12:00:19;8.03;;;3.90;;
81026;SDS011;70506;49.320;8.446;2024-01-30T12:02:49;9.15;;;4.50;;
81026;SDS011;70506;49.320;8.446;2024-01-30T12:05:20;9.68;;;4.28;;
81026;SDS011;70506;49.320;8.446;2024-01-30T12:07:46;9.18;;;4.53;;
81026;SDS011;70506;49.320;8.446;2024-01-30T12:10:14;8.50;;;4.03;;
81026;SDS011;70506;49.320;8.446;2024-01-30T12:12:44;9.98;;;4.53;;
81026;SDS011;70506;49.320;8.446;2024-01-30T12:15:11;8.70;;;4.43;;
81026;SDS011;70506;49.320;8.446;2024-01-30T12:17:37;9.50;;;4.88;;
81026;SDS011;70506;49.320;8.446;2024-01-30T12:20:06;11.33;;;4.80;;
81026;SDS011;70506;49.320;8.446;2024-01-30T12:22:33;8.25;;;4.22;;
81026;SDS011;70506;49.320;8.446;2024-01-30T12:25:04;7.25;;;4.20;;
81026;SDS011;70506;49.320;8.446;2024-01-30T12:27:30;7.75;;;4.20;;
81026;SDS011;70506;49.320;8.446;2024-01-30T12:29:56;6.40;;;4.20;;
81026;SDS011;70506;49.320;8.446;2024-01-30T12:32:23;7.43;;;3.90;;
81026;SDS011;70506;49.320;8.446;2024-01-30T12:34:48;7.85;;;4.43;;
81026;SDS011;70506;49.320;8.446;2024-01-30T12:37:13;8.30;;;4.03;;
81026;SDS011;70506;49.320;8.446;2024-01-30T12:39:39;8.17;;;3.90;;
81026;SDS011;70506;49.320;8.446;2024-01-30T12:44:30;7.60;;;4.40;;
81026;SDS011;70506;49.320;8.446;2024-01-30T12:46:56;7.87;;;3.67;;
81026;SDS011;70506;49.320;8.446;2024-01-30T12:49:21;13.33;;;4.23;;
81026;SDS011;70506;49.320;8.446;2024-01-30T12:51:46;6.93;;;3.57;;
81026;SDS011;70506;49.320;8.446;2024-01-30T12:54:12;8.40;;;3.73;;
81026;SDS011;70506;49.320;8.446;2024-01-30T12:59:03;7.83;;;3.77;;
81026;SDS011;70506;49.320;8.446;2024-01-30T13:01:28;6.03;;;3.53;;
81026;SDS011;70506;49.320;8.446;2024-01-30T13:03:54;9.60;;;3.80;;
81026;SDS011;70506;49.320;8.446;2024-01-30T13:06:19;7.18;;;4.13;;
81026;SDS011;70506;49.320;8.446;2024-01-30T13:08:44;8.75;;;3.90;;
81026;SDS011;70506;49.320;8.446;2024-01-30T13:11:10;8.60;;;4.10;;
81026;SDS011;70506;49.320;8.446;2024-01-30T13:13:37;7.40;;;4.00;;
81026;SDS011;70506;49.320;8.446;2024-01-30T13:16:02;8.43;;;3.90;;
81026;SDS011;70506;49.320;8.446;2024-01-30T13:18:29;7.45;;;3.63;;
81026;SDS011;70506;49.320;8.446;2024-01-30T13:20:54;6.57;;;4.05;;
81026;SDS011;70506;49.320;8.446;2024-01-30T13:23:19;8.23;;;3.77;;
81026;SDS011;70506;49.320;8.446;2024-01-30T13:25:45;7.43;;;3.87;;
81026;SDS011;70506;49.320;8.446;2024-01-30T13:28:10;6.22;;;3.33;;
81026;SDS011;70506;49.320;8.446;2024-01-30T13:30:36;7.53;;;3.77;;
81026;SDS011;70506;49.320;8.446;2024-01-30T13:33:01;7.28;;;3.83;;
81026;SDS011;70506;49.320;8.446;2024-01-30T13:35:28;5.85;;;3.42;;
81026;SDS011;70506;49.320;8.446;2024-01-30T13:37:53;8.10;;;3.90;;
81026;SDS011;70506;49.320;8.446;2024-01-30T13:40:18;6.97;;;3.53;;
81026;SDS011;70506;49.320;8.446;2024-01-30T13:42:44;7.45;;;3.17;;
81026;SDS011;70506;49.320;8.446;2024-01-30T13:45:09;6.83;;;3.43;;
81026;SDS011;70506;49.320;8.446;2024-01-30T13:47:35;7.13;;;3.22;;
81026;SDS011;70506;49.320;8.446;2024-01-30T13:50:00;6.87;;;2.97;;
81026;SDS011;70506;49.320;8.446;2024-01-30T13:52:25;6.03;;;3.30;;
81026;SDS011;70506;49.320;8.446;2024-01-30T13:54:52;5.95;;;2.90;;
81026;SDS011;70506;49.320;8.446;2024-01-30T13:57:17;6.17;;;2.93;;
81026;SDS011;70506;49.320;8.446;2024-01-30T13:59:42;5.00;;;3.10;;
81026;SDS011;70506;49.320;8.446;2024-01-30T14:02:08;4.77;;;2.70;;
81026;SDS011;70506;49.320;8.446;2024-01-30T14:04:35;5.43;;;2.72;;
81026;SDS011;70506;49.320;8.446;2024-01-30T14:07:02;5.03;;;2.78;;
81026;SDS011;70506;49.320;8.446;2024-01-30T14:09:27;5.53;;;2.45;;
81026;SDS011;70506;49.320;8.446;2024-01-30T14:11:53;7.15;;;2.83;;
81026;SDS011;70506;49.320;8.446;2024-01-30T14:14:19;3.80;;;2.30;;
81026;SDS011;70506;49.320;8.446;2024-01-30T14:16:44;4.80;;;2.38;;
81026;SDS011;70506;49.320;8.446;2024-01-30T14:19:09;4.55;;;2.47;;
81026;SDS011;70506;49.320;8.446;2024-01-30T14:21:35;6.65;;;3.10;;
81026;SDS011;70506;49.320;8.446;2024-01-30T14:24:02;4.15;;;2.50;;
81026;SDS011;70506;49.320;8.446;2024-01-30T14:26:27;6.15;;;2.30;;
81026;SDS011;70506;49.320;8.446;2024-01-30T14:28:52;9.97;;;2.60;;
81026;SDS011;70506;49.320;8.446;2024-01-30T14:31:20;5.60;;;2.63;;
81026;SDS011;70506;49.320;8.446;2024-01-30T14:36:11;7.15;;;2.30;;
81026;SDS011;70506;49.320;8.446;2024-01-30T14:38:37;6.28;;;2.47;;
81026;SDS011;70506;49.320;8.446;2024-01-30T14:41:02;8.83;;;2.90;;
81026;SDS011;70506;49.320;8.446;2024-01-30T14:43:29;5.40;;;2.80;;
81026;SDS011;70506;49.320;8.446;2024-01-30T14:45:54;7.07;;;2.60;;
81026;SDS011;70506;49.320;8.446;2024-01-30T14:48:20;4.70;;;2.45;;
81026;SDS011;70506;49.320;8.446;2024-01-30T14:50:45;4.67;;;2.37;;
81026;SDS011;70506;49.320;8.446;2024-01-30T14:53:12;6.63;;;2.80;;